首页
METAR-TAF:

METAR-TAF

机场 :

拉巴特-塞拉国际机场

拉巴特, 摩洛哥

纬度: 34-03N, 经度: 006-46W, 海拔: 84米

当前天气观测

该预报发布于30分钟前的23:30 UTC
风速6节,风向西转西南
温度 19°C
湿度 83%
气压 1016 hPa
能見度: 5000
少量云层高于1000英尺
散云层高于2300英尺

METAR: GMME 192330Z 24006KT 5000 FEW010 SCT023 19/16 Q1016 NOSIG

时间: 01:00 (00:00 UTC)

预报

该预报发布于7小时和0分钟前的17:00 UTC
预报有效从19日的 18点(UTC)到 21日的 00点(UTC)
风速10节,风向西北
能見度: 5000
散云层高于1000英尺
多云层高于2000英尺
短暂存在
从 19日的 18点(UTC)到 20日的 07点(UTC)
风速2节,风向多变
能見度: 2000
多云层高于800英尺
多云层高于1500英尺
轻雾
成为
从 20日的 07点(UTC)到 20日的 10点(UTC)
风速10节,风向东南
能見度: 8000
散云层高于1600英尺
散云层高于2400英尺

TAF: GMME 191700Z 1918/2100 32010KT 5000 SCT010 BKN020 TEMPO 1918/2007 VRB02KT 2000 BR BKN008 BKN015 BECMG 2007/2010 14010KT 8000 SCT016 SCT024

超过4000个机场的气象观测和天气预报(METAR&TAF报告)。

可查询的气象台以黄色和红色小点在地图上表示。

将鼠标移到小点上方,可查看气象台名称。

然后点击查看天气观测和预报。

如需切换地图:点击带黑十字的绿色按钮放大地图;点击带横线的绿色按钮缩小地图;或者点击绿色箭头查看邻近地区的地图。


METAR-TAF: